createdAt,value
2022-07-26T00:02:27.531Z,93.40
2022-07-26T00:04:55.513Z,93.50
2022-07-26T00:07:24.855Z,93.50
2022-07-26T00:09:52.827Z,93.50
2022-07-26T00:12:20.831Z,93.60
2022-07-26T00:14:48.770Z,93.70
2022-07-26T00:25:20.304Z,93.80
2022-07-26T00:27:48.432Z,93.70
2022-07-26T00:30:16.610Z,94.00
2022-07-26T00:32:44.891Z,93.80
2022-07-26T00:35:13.530Z,93.60
2022-07-26T00:37:41.814Z,93.80
2022-07-26T00:40:12.569Z,93.80
2022-07-26T00:42:42.058Z,93.70
2022-07-26T00:45:14.594Z,93.80
2022-07-26T00:47:42.994Z,93.70
2022-07-26T00:50:14.531Z,93.90
2022-07-26T00:52:43.420Z,93.30
2022-07-26T00:55:12.207Z,93.10
2022-07-26T00:57:42.558Z,93.30
2022-07-26T01:00:13.222Z,93.40
2022-07-26T01:02:41.804Z,93.50
2022-07-26T01:05:10.329Z,93.60
2022-07-26T01:07:39.417Z,93.60
2022-07-26T01:10:12.132Z,93.70
2022-07-26T01:12:42.054Z,93.90
2022-07-26T01:15:14.914Z,94.00
2022-07-26T01:17:45.900Z,94.10
2022-07-26T01:20:15.144Z,94.30
2022-07-26T01:22:46.763Z,94.40
2022-07-26T01:25:14.957Z,94.20
2022-07-26T01:27:43.888Z,94.50
2022-07-26T01:30:13.647Z,94.70
2022-07-26T01:32:41.644Z,94.90
2022-07-26T01:35:10.889Z,95.00
2022-07-26T01:37:38.894Z,95.20
2022-07-26T01:40:10.359Z,95.40
2022-07-26T01:42:40.760Z,95.40
2022-07-26T01:45:09.850Z,95.60
2022-07-26T01:47:38.579Z,95.60
2022-07-26T01:50:08.588Z,95.70
2022-07-26T01:52:37.297Z,95.80
2022-07-26T01:55:05.974Z,95.90
2022-07-26T01:57:35.370Z,96.00
2022-07-26T02:00:04.111Z,96.20
2022-07-26T02:02:32.278Z,96.00
2022-07-26T02:05:00.391Z,96.30
2022-07-26T02:07:28.721Z,96.50
2022-07-26T02:09:57.051Z,96.40
2022-07-26T02:12:26.188Z,96.60
2022-07-26T02:14:55.493Z,96.80
2022-07-26T02:17:23.553Z,96.80
2022-07-26T02:19:52.348Z,96.70
2022-07-26T02:22:20.890Z,96.80
2022-07-26T02:24:49.414Z,96.90
2022-07-26T02:27:18.191Z,97.00
2022-07-26T02:29:46.533Z,97.20
2022-07-26T02:32:16.196Z,97.30
2022-07-26T02:34:44.186Z,96.90
2022-07-26T02:37:12.169Z,97.30
2022-07-26T02:39:40.144Z,97.30
2022-07-26T02:42:08.295Z,97.40
2022-07-26T02:44:36.637Z,97.40
2022-07-26T02:47:04.747Z,97.50
2022-07-26T02:49:34.096Z,97.60
2022-07-26T02:52:02.090Z,97.60
2022-07-26T02:54:30.056Z,97.70
2022-07-26T02:57:00.972Z,97.70
2022-07-26T02:59:29.014Z,97.80
2022-07-26T03:01:57.181Z,97.70
2022-07-26T03:04:25.279Z,97.90
2022-07-26T03:06:54.691Z,97.80
2022-07-26T03:09:24.335Z,97.90
2022-07-26T03:11:52.343Z,98.00
2022-07-26T03:14:20.290Z,97.90
2022-07-26T03:16:48.296Z,97.80
2022-07-26T03:19:16.250Z,97.90
2022-07-26T03:21:44.323Z,98.10
2022-07-26T03:24:13.662Z,98.10
2022-07-26T03:26:41.718Z,98.10
2022-07-26T03:29:09.701Z,98.40
2022-07-26T03:31:37.700Z,98.30
2022-07-26T03:34:06.072Z,98.40
2022-07-26T03:36:34.329Z,98.40
2022-07-26T03:39:02.316Z,98.50
2022-07-26T03:41:32.415Z,98.40
2022-07-26T03:44:00.342Z,98.50
2022-07-26T03:46:28.440Z,98.50
2022-07-26T03:48:56.602Z,98.60
2022-07-26T03:51:24.933Z,98.70
2022-07-26T03:53:53.168Z,98.60
2022-07-26T03:56:29.106Z,98.70
2022-07-26T03:59:00.173Z,98.80
2022-07-26T04:01:31.815Z,98.80
2022-07-26T04:04:00.190Z,98.90
2022-07-26T04:06:29.358Z,98.90
2022-07-26T04:08:57.943Z,98.90
2022-07-26T04:11:27.691Z,98.90
2022-07-26T04:13:58.591Z,98.90
2022-07-26T04:16:29.691Z,98.90
2022-07-26T04:18:57.744Z,98.90
2022-07-26T04:21:26.596Z,99.00
2022-07-26T04:23:54.619Z,98.90
2022-07-26T04:26:22.878Z,99.00
2022-07-26T04:28:50.923Z,98.90
2022-07-26T04:31:20.475Z,99.00
2022-07-26T04:33:48.542Z,99.10
2022-07-26T04:36:16.508Z,98.90
2022-07-26T04:38:45.275Z,99.10
2022-07-26T04:41:13.468Z,99.30
2022-07-26T04:43:41.499Z,99.10
2022-07-26T04:46:09.653Z,99.20
2022-07-26T04:48:39.896Z,99.10
2022-07-26T04:51:08.008Z,99.30
2022-07-26T04:53:36.041Z,99.20
2022-07-26T04:56:04.151Z,99.20
2022-07-26T04:58:32.171Z,99.40
2022-07-26T05:01:16.241Z,99.10
2022-07-26T05:03:47.639Z,99.20
2022-07-26T05:06:15.803Z,99.20
2022-07-26T05:08:43.772Z,99.70
2022-07-26T05:11:11.960Z,99.10
2022-07-26T05:13:40.110Z,99.40
2022-07-26T05:16:11.703Z,99.30
2022-07-26T05:18:48.625Z,99.50
2022-07-26T05:21:21.164Z,99.70
2022-07-26T05:23:49.403Z,99.30
2022-07-26T05:26:17.490Z,99.60
2022-07-26T05:28:45.518Z,99.50
2022-07-26T05:31:13.581Z,99.20
2022-07-26T05:33:41.739Z,99.60
2022-07-26T05:36:10.303Z,99.70
2022-07-26T05:38:39.855Z,99.60
2022-07-26T05:41:08.163Z,99.70
2022-07-26T05:43:41.506Z,99.70
2022-07-26T05:46:11.109Z,99.60
2022-07-26T05:48:39.221Z,99.70
2022-07-26T05:51:07.232Z,99.30
2022-07-26T05:53:35.288Z,99.60
2022-07-26T05:56:05.218Z,99.70
2022-07-26T05:58:33.224Z,99.80
2022-07-26T06:01:01.262Z,99.90
2022-07-26T06:03:30.128Z,99.90
2022-07-26T06:06:00.036Z,99.90
2022-07-26T06:08:28.713Z,99.70
2022-07-26T06:10:56.961Z,99.90
2022-07-26T06:13:26.442Z,99.90
2022-07-26T06:15:54.626Z,99.90
2022-07-26T06:18:22.832Z,99.90
2022-07-26T06:20:52.105Z,99.90
2022-07-26T06:23:33.832Z,99.90
2022-07-26T06:26:04.040Z,99.90
2022-07-26T06:28:33.959Z,99.90
2022-07-26T06:31:02.044Z,99.90
2022-07-26T06:33:30.504Z,99.90
2022-07-26T06:35:58.484Z,99.90
2022-07-26T06:38:26.464Z,99.60
2022-07-26T06:40:54.503Z,98.90
2022-07-26T06:43:22.634Z,98.70
2022-07-26T06:45:52.144Z,98.50
2022-07-26T06:48:20.245Z,98.40
2022-07-26T06:50:48.238Z,98.10
2022-07-26T06:53:16.304Z,98.40
2022-07-26T06:55:44.615Z,98.30
2022-07-26T06:58:14.115Z,98.20
2022-07-26T07:00:42.313Z,98.40
2022-07-26T07:03:11.770Z,98.70
2022-07-26T07:05:39.809Z,98.50
2022-07-26T07:08:08.000Z,98.60
2022-07-26T07:10:38.680Z,98.40
2022-07-26T07:13:06.763Z,98.60
2022-07-26T07:15:34.779Z,98.60
2022-07-26T07:18:02.907Z,98.70
2022-07-26T07:20:32.272Z,98.70
2022-07-26T07:23:00.282Z,98.80
2022-07-26T07:25:30.969Z,98.90
2022-07-26T07:27:59.582Z,98.90
2022-07-26T07:30:28.140Z,98.30
2022-07-26T07:32:56.914Z,98.10
2022-07-26T07:35:25.186Z,98.20
2022-07-26T07:38:02.034Z,98.50
2022-07-26T07:40:30.354Z,98.50
2022-07-26T07:42:58.950Z,98.70
2022-07-26T07:45:26.931Z,98.60
2022-07-26T07:47:54.948Z,98.30
2022-07-26T07:50:22.963Z,98.30
2022-07-26T07:52:56.633Z,98.40
2022-07-26T07:55:46.722Z,98.50
2022-07-26T07:58:17.263Z,98.40
2022-07-26T08:00:45.715Z,98.80
2022-07-26T08:03:18.590Z,98.50
2022-07-26T08:05:49.933Z,98.30
2022-07-26T08:08:22.124Z,98.00
2022-07-26T08:10:53.264Z,97.90
2022-07-26T08:13:22.617Z,97.80
2022-07-26T08:15:51.290Z,98.10
2022-07-26T08:18:22.224Z,97.80
2022-07-26T08:20:51.510Z,98.00
2022-07-26T08:23:20.006Z,98.00
2022-07-26T08:25:56.031Z,97.80
2022-07-26T08:28:46.707Z,97.60
2022-07-26T08:31:15.470Z,97.10
2022-07-26T08:33:45.808Z,97.00
2022-07-26T08:36:15.059Z,97.00
2022-07-26T08:38:43.219Z,96.40
2022-07-26T08:41:11.298Z,96.80
2022-07-26T08:43:51.225Z,96.90
2022-07-26T08:46:24.707Z,97.70
2022-07-26T08:48:54.487Z,98.10
2022-07-26T08:51:24.728Z,98.00
2022-07-26T08:54:02.320Z,97.90
2022-07-26T08:56:34.281Z,97.90
2022-07-26T08:59:07.223Z,97.50
2022-07-26T09:01:35.698Z,97.50
2022-07-26T09:04:30.892Z,97.80
2022-07-26T09:07:02.414Z,97.80
2022-07-26T09:09:31.305Z,98.00
2022-07-26T09:11:59.947Z,98.20
2022-07-26T09:14:39.817Z,98.20
2022-07-26T09:17:08.212Z,98.20
2022-07-26T09:19:36.677Z,98.60
2022-07-26T09:22:10.697Z,99.00
2022-07-26T09:24:42.108Z,99.30
2022-07-26T09:27:11.960Z,99.50
2022-07-26T09:29:52.440Z,99.90
2022-07-26T09:32:21.954Z,99.90
2022-07-26T09:34:58.363Z,99.70
2022-07-26T09:37:36.962Z,99.90
2022-07-26T09:40:08.546Z,99.90
2022-07-26T09:42:39.418Z,99.90
2022-07-26T09:45:18.111Z,99.90
2022-07-26T09:47:46.186Z,99.90
2022-07-26T09:50:16.715Z,99.90
2022-07-26T09:53:07.763Z,99.90
2022-07-26T09:55:44.604Z,99.90
2022-07-26T09:58:14.186Z,99.90
2022-07-26T10:00:44.472Z,99.90
2022-07-26T10:03:13.002Z,99.90
2022-07-26T10:05:41.806Z,99.90
2022-07-26T10:08:10.779Z,99.90
2022-07-26T10:10:44.464Z,99.90
2022-07-26T10:13:13.007Z,99.90
2022-07-26T10:15:44.779Z,99.90
2022-07-26T10:18:45.938Z,99.90
2022-07-26T10:21:22.410Z,99.90
2022-07-26T10:23:51.524Z,99.90
2022-07-26T10:26:45.414Z,99.90
2022-07-26T10:29:26.504Z,99.90
2022-07-26T10:32:21.282Z,99.90
2022-07-26T10:34:49.442Z,99.90
2022-07-26T10:37:30.619Z,99.90
2022-07-26T10:40:20.321Z,98.20
2022-07-26T10:42:48.523Z,98.00
2022-07-26T10:45:22.324Z,99.00
2022-07-26T10:48:13.949Z,99.80
2022-07-26T10:50:43.812Z,99.90
2022-07-26T10:53:17.623Z,99.60
2022-07-26T10:55:50.775Z,99.30
2022-07-26T10:58:19.208Z,99.40
2022-07-26T11:00:58.059Z,98.70
2022-07-26T11:03:38.872Z,99.40
2022-07-26T11:06:14.440Z,99.30
2022-07-26T11:08:47.585Z,99.10
2022-07-26T11:11:27.707Z,99.00
2022-07-26T11:14:05.704Z,99.10
2022-07-26T11:16:38.721Z,99.10
2022-07-26T11:19:16.043Z,98.00
2022-07-26T11:21:45.337Z,97.50
2022-07-26T11:24:13.870Z,97.50
2022-07-26T11:26:43.297Z,97.60
2022-07-26T11:29:16.690Z,98.00
2022-07-26T11:31:50.537Z,97.40
2022-07-26T11:34:30.780Z,98.00
2022-07-26T11:36:59.588Z,96.90
2022-07-26T11:39:29.757Z,97.10
2022-07-26T11:41:58.994Z,96.90
2022-07-26T11:44:29.310Z,96.70
2022-07-26T11:46:58.519Z,96.50
2022-07-26T11:49:59.892Z,96.70
2022-07-26T11:52:24.998Z,96.50
2022-07-26T11:54:54.384Z,96.50
2022-07-26T11:57:22.522Z,95.40
2022-07-26T11:59:51.480Z,95.50
2022-07-26T12:02:21.412Z,95.00
2022-07-26T12:04:50.868Z,95.10
2022-07-26T12:07:21.446Z,95.50
2022-07-26T12:09:52.507Z,95.70
2022-07-26T12:12:22.732Z,96.00
2022-07-26T12:14:59.476Z,96.00
2022-07-26T12:17:35.166Z,96.20
2022-07-26T12:20:17.429Z,95.90
2022-07-26T12:22:54.563Z,95.90
2022-07-26T12:25:26.825Z,96.40
2022-07-26T12:27:54.958Z,96.10
2022-07-26T12:30:23.761Z,96.10
2022-07-26T12:32:54.496Z,95.70
2022-07-26T12:35:35.229Z,96.40
2022-07-26T12:38:03.895Z,95.80
2022-07-26T12:40:40.658Z,95.10
2022-07-26T12:43:08.752Z,95.50
2022-07-26T12:45:38.119Z,94.80
2022-07-26T12:48:10.985Z,94.90
2022-07-26T12:50:40.533Z,94.80
2022-07-26T12:53:12.636Z,94.30
2022-07-26T12:55:41.112Z,94.40
2022-07-26T12:58:09.907Z,94.40
2022-07-26T13:00:37.886Z,94.10
2022-07-26T13:03:05.991Z,94.10
2022-07-26T13:05:33.992Z,94.30
2022-07-26T13:08:03.416Z,94.40
2022-07-26T13:10:34.661Z,94.70
2022-07-26T13:13:03.715Z,94.90
2022-07-26T13:15:35.961Z,95.00
2022-07-26T13:18:07.085Z,95.10
2022-07-26T13:20:35.433Z,95.20
2022-07-26T13:23:05.013Z,95.50
2022-07-26T13:25:38.351Z,95.50
2022-07-26T13:28:08.228Z,95.60
2022-07-26T13:30:37.917Z,95.70
2022-07-26T13:33:06.272Z,95.70
2022-07-26T13:35:34.255Z,96.00
2022-07-26T13:38:02.317Z,95.90
2022-07-26T13:40:32.215Z,96.00
2022-07-26T13:43:00.601Z,96.10
2022-07-26T13:45:29.615Z,96.10
2022-07-26T13:47:59.166Z,96.30
2022-07-26T13:50:28.830Z,96.40
2022-07-26T13:52:57.323Z,96.30
2022-07-26T13:55:26.166Z,96.40
2022-07-26T13:57:57.484Z,96.40
2022-07-26T14:00:27.333Z,96.40
2022-07-26T14:02:56.333Z,96.40
2022-07-26T14:05:24.614Z,96.40
2022-07-26T14:07:52.775Z,96.50
2022-07-26T14:10:21.053Z,96.60
2022-07-26T14:12:49.857Z,96.50
2022-07-26T14:15:22.696Z,96.40
2022-07-26T14:17:51.853Z,96.50
2022-07-26T14:20:20.791Z,96.40
2022-07-26T14:22:49.282Z,96.60
2022-07-26T14:25:17.418Z,96.60
2022-07-26T14:27:45.408Z,96.50
2022-07-26T14:30:14.511Z,96.60
2022-07-26T14:32:43.951Z,96.60
2022-07-26T14:35:12.004Z,97.00
2022-07-26T14:37:43.763Z,97.00
2022-07-26T14:40:14.288Z,96.90
2022-07-26T14:42:42.547Z,96.70
2022-07-26T14:45:11.168Z,96.60
2022-07-26T14:47:39.292Z,96.70
2022-07-26T14:50:10.431Z,96.80
2022-07-26T14:52:39.473Z,96.60
2022-07-26T14:55:08.650Z,96.80
2022-07-26T14:57:39.515Z,96.70
2022-07-26T15:00:10.504Z,96.90
2022-07-26T15:02:40.692Z,96.90
2022-07-26T15:05:10.969Z,96.90
2022-07-26T15:07:39.838Z,96.90
2022-07-26T15:10:09.577Z,97.00
2022-07-26T15:12:38.262Z,96.90
2022-07-26T15:15:07.812Z,96.90
2022-07-26T15:17:36.488Z,96.90
2022-07-26T15:20:06.115Z,97.00
2022-07-26T15:22:36.014Z,96.90
2022-07-26T15:25:04.208Z,96.90
2022-07-26T15:27:32.328Z,97.10
2022-07-26T15:30:05.102Z,97.30
2022-07-26T15:32:36.691Z,97.10
2022-07-26T15:35:08.252Z,97.30
2022-07-26T15:37:45.206Z,97.40
2022-07-26T15:40:14.122Z,97.30
2022-07-26T15:42:44.246Z,97.20
2022-07-26T15:45:14.200Z,97.10
2022-07-26T15:48:10.987Z,97.10
2022-07-26T15:50:30.681Z,97.10
2022-07-26T15:53:00.098Z,97.20
2022-07-26T15:55:28.170Z,97.40
2022-07-26T15:57:56.349Z,97.10
2022-07-26T16:00:24.317Z,97.40
2022-07-26T16:02:52.486Z,97.10
2022-07-26T16:05:20.522Z,97.00
2022-07-26T16:07:48.565Z,97.10
2022-07-26T16:10:17.869Z,97.10
2022-07-26T16:12:45.998Z,97.20
2022-07-26T16:15:15.149Z,96.90
2022-07-26T16:17:43.132Z,97.00
2022-07-26T16:20:11.471Z,97.10
2022-07-26T16:22:41.841Z,97.10
2022-07-26T16:25:13.413Z,97.20
2022-07-26T16:27:43.744Z,97.30
2022-07-26T16:30:13.047Z,97.10
2022-07-26T16:32:41.039Z,97.50
2022-07-26T16:35:10.529Z,97.20
2022-07-26T16:37:38.959Z,97.20
2022-07-26T16:40:08.488Z,97.40
2022-07-26T16:42:36.496Z,97.30
2022-07-26T16:45:06.471Z,97.30
2022-07-26T16:47:34.435Z,97.20
2022-07-26T16:50:02.687Z,97.10
2022-07-26T16:52:30.771Z,97.00
2022-07-26T16:54:59.060Z,97.30
2022-07-26T16:57:28.058Z,97.50
2022-07-26T16:59:55.954Z,97.30
2022-07-26T17:02:25.375Z,97.60
2022-07-26T17:04:55.806Z,97.40
2022-07-26T17:07:25.593Z,97.70
2022-07-26T17:09:55.019Z,97.50
2022-07-26T17:12:23.540Z,97.70
2022-07-26T17:14:52.096Z,97.90
2022-07-26T17:17:20.087Z,98.20
2022-07-26T17:19:49.479Z,98.20
2022-07-26T17:22:18.149Z,98.10
2022-07-26T17:24:46.228Z,98.10
2022-07-26T17:27:14.683Z,98.10
2022-07-26T17:29:42.800Z,98.20
2022-07-26T17:32:11.525Z,98.30
2022-07-26T17:34:39.881Z,98.60
2022-07-26T17:37:09.959Z,98.50
2022-07-26T17:39:52.618Z,98.50
2022-07-26T17:42:21.929Z,98.50
2022-07-26T17:44:50.280Z,98.40
2022-07-26T17:47:29.161Z,98.50
2022-07-26T17:50:14.209Z,98.20
2022-07-26T17:52:49.865Z,98.20
2022-07-26T17:55:19.606Z,97.70
2022-07-26T17:57:49.677Z,98.10
2022-07-26T18:00:20.045Z,98.40
2022-07-26T18:02:48.315Z,98.20
2022-07-26T18:05:16.760Z,98.10
2022-07-26T18:07:44.841Z,98.40
2022-07-26T18:10:14.666Z,98.40
2022-07-26T18:12:42.842Z,98.30
2022-07-26T18:15:11.721Z,98.40
2022-07-26T18:17:40.212Z,98.70
2022-07-26T18:20:09.270Z,98.70
2022-07-26T18:22:37.342Z,98.70
2022-07-26T18:25:06.153Z,98.80
2022-07-26T18:27:35.629Z,98.70
2022-07-26T18:30:03.980Z,99.00
2022-07-26T18:32:32.008Z,99.00
2022-07-26T18:34:59.949Z,99.00
2022-07-26T18:37:28.124Z,99.00
2022-07-26T18:39:58.041Z,98.90
2022-07-26T18:42:26.355Z,98.80
2022-07-26T18:44:55.737Z,98.90
2022-07-26T18:47:23.880Z,99.00
2022-07-26T18:49:51.859Z,99.00
2022-07-26T18:52:32.182Z,99.20
2022-07-26T18:55:06.587Z,99.20
2022-07-26T18:57:35.031Z,99.20
2022-07-26T19:00:06.146Z,99.40
2022-07-26T19:02:34.185Z,99.40
2022-07-26T19:05:02.167Z,99.30
2022-07-26T19:07:31.655Z,99.30
2022-07-26T19:09:59.985Z,99.40
2022-07-26T19:12:28.634Z,99.50
2022-07-26T19:14:56.666Z,99.50
2022-07-26T19:17:26.072Z,99.60
2022-07-26T19:19:54.589Z,99.50
2022-07-26T19:22:25.803Z,99.60
2022-07-26T19:24:53.861Z,99.70
2022-07-26T19:27:21.922Z,99.70
2022-07-26T19:29:49.934Z,99.90
2022-07-26T19:32:18.127Z,99.80
2022-07-26T19:34:47.494Z,99.70
2022-07-26T19:37:19.765Z,99.80
2022-07-26T19:39:48.087Z,99.90
2022-07-26T19:42:16.337Z,99.90
2022-07-26T19:44:45.701Z,99.90
2022-07-26T19:47:14.117Z,99.80
2022-07-26T19:49:42.461Z,99.90
2022-07-26T19:52:12.226Z,99.90
2022-07-26T19:54:40.514Z,99.90
2022-07-26T19:57:08.779Z,99.90
2022-07-26T19:59:36.771Z,99.90
2022-07-26T20:02:05.735Z,99.80
2022-07-26T20:04:33.886Z,99.80
2022-07-26T20:07:01.905Z,99.70
2022-07-26T20:09:31.382Z,99.30
2022-07-26T20:12:00.320Z,99.50
2022-07-26T20:14:28.514Z,99.40
2022-07-26T20:16:56.986Z,99.50
2022-07-26T20:19:27.972Z,98.40
2022-07-26T20:21:56.273Z,96.50
2022-07-26T20:24:24.268Z,96.60
2022-07-26T20:26:54.161Z,96.70
2022-07-26T20:29:22.529Z,97.70
2022-07-26T20:31:50.570Z,97.60
2022-07-26T20:34:18.604Z,97.40
2022-07-26T20:36:47.196Z,96.80
2022-07-26T20:39:15.658Z,96.80
2022-07-26T20:41:45.793Z,97.10
2022-07-26T20:44:15.572Z,97.10
2022-07-26T20:46:44.756Z,97.40
2022-07-26T20:49:13.123Z,97.50
2022-07-26T20:51:41.488Z,97.50
2022-07-26T20:54:10.297Z,97.40
2022-07-26T20:56:38.519Z,97.50
2022-07-26T20:59:06.529Z,97.60
2022-07-26T21:01:36.098Z,97.50
2022-07-26T21:04:04.456Z,97.60
2022-07-26T21:06:33.890Z,97.40
2022-07-26T21:09:09.616Z,97.30
2022-07-26T21:11:38.558Z,97.30
2022-07-26T21:14:06.642Z,97.20
2022-07-26T21:16:36.221Z,97.20
2022-07-26T21:19:05.499Z,97.00
2022-07-26T21:21:34.719Z,96.90
2022-07-26T21:24:02.788Z,96.70
2022-07-26T21:26:30.867Z,96.50
2022-07-26T21:28:58.994Z,96.40
2022-07-26T21:31:27.526Z,96.30
2022-07-26T21:33:56.902Z,96.30
2022-07-26T21:36:24.902Z,96.20
2022-07-26T21:38:52.938Z,95.90
2022-07-26T21:41:21.157Z,96.20
2022-07-26T21:43:49.126Z,95.70
2022-07-26T21:46:17.191Z,95.60
2022-07-26T21:48:45.340Z,95.50
2022-07-26T21:51:14.749Z,95.00
2022-07-26T21:53:42.834Z,95.10
2022-07-26T21:56:11.266Z,94.80
2022-07-26T21:58:39.687Z,94.70
2022-07-26T22:01:11.068Z,94.60
2022-07-26T22:03:39.964Z,94.40
2022-07-26T22:06:08.947Z,94.10
2022-07-26T22:08:38.635Z,94.20
2022-07-26T22:11:06.663Z,94.20
2022-07-26T22:13:34.614Z,94.20
2022-07-26T22:16:02.773Z,94.00
2022-07-26T22:18:30.857Z,93.80
2022-07-26T22:20:58.940Z,93.60
2022-07-26T22:23:30.020Z,93.50
2022-07-26T22:26:01.795Z,93.50
2022-07-26T22:28:30.797Z,93.40
2022-07-26T22:30:59.123Z,93.50
2022-07-26T22:33:27.286Z,93.40
2022-07-26T22:35:55.254Z,93.30
2022-07-26T22:38:23.253Z,93.30
2022-07-26T22:40:51.426Z,93.20
2022-07-26T22:43:21.543Z,93.30
2022-07-26T22:45:49.580Z,93.30
2022-07-26T22:48:17.741Z,93.30
2022-07-26T22:50:45.753Z,93.30
2022-07-26T22:53:13.786Z,93.20
2022-07-26T22:55:42.062Z,93.10
2022-07-26T22:58:10.224Z,92.90
2022-07-26T23:00:39.613Z,92.80
2022-07-26T23:03:19.839Z,92.60
2022-07-26T23:05:50.350Z,92.60
2022-07-26T23:08:45.773Z,92.50
2022-07-26T23:11:06.898Z,92.70
2022-07-26T23:13:34.931Z,93.10
2022-07-26T23:16:04.578Z,91.80
2022-07-26T23:18:34.227Z,91.70
2022-07-26T23:21:02.338Z,91.90
2022-07-26T23:23:32.250Z,91.70
2022-07-26T23:26:01.023Z,92.10
2022-07-26T23:28:37.170Z,92.30
2022-07-26T23:31:12.015Z,92.10
2022-07-26T23:33:53.007Z,92.50
2022-07-26T23:36:26.348Z,92.40
2022-07-26T23:38:55.290Z,92.50
2022-07-26T23:41:23.709Z,92.60
2022-07-26T23:43:51.999Z,92.80
2022-07-26T23:46:21.637Z,92.80
2022-07-26T23:48:49.928Z,92.80
2022-07-26T23:51:19.303Z,92.90
2022-07-26T23:53:47.599Z,92.90
2022-07-26T23:56:15.924Z,92.80
2022-07-26T23:58:43.973Z,92.80
